sensor_id;sensor_type;location;lat;lon;timestamp;P1;durP1;ratioP1;P2;durP2;ratioP2
57573;SDS011;68988;49.000;21.242;2023-12-28T00:00:01;3.60;;;3.20;;
57573;SDS011;68988;49.000;21.242;2023-12-28T00:02:26;2.97;;;2.78;;
57573;SDS011;68988;49.000;21.242;2023-12-28T00:04:52;3.40;;;3.20;;
57573;SDS011;68988;49.000;21.242;2023-12-28T00:07:17;3.78;;;3.45;;
57573;SDS011;68988;49.000;21.242;2023-12-28T00:09:42;3.90;;;3.65;;
57573;SDS011;68988;49.000;21.242;2023-12-28T00:12:08;2.88;;;2.75;;
57573;SDS011;68988;49.000;21.242;2023-12-28T00:14:33;3.22;;;3.03;;
57573;SDS011;68988;49.000;21.242;2023-12-28T00:16:58;3.35;;;3.15;;
57573;SDS011;68988;49.000;21.242;2023-12-28T00:19:24;3.17;;;2.97;;
57573;SDS011;68988;49.000;21.242;2023-12-28T00:21:49;3.20;;;3.00;;
57573;SDS011;68988;49.000;21.242;2023-12-28T00:24:15;3.00;;;2.80;;
57573;SDS011;68988;49.000;21.242;2023-12-28T00:26:41;3.35;;;3.15;;
57573;SDS011;68988;49.000;21.242;2023-12-28T00:29:06;3.25;;;3.05;;
57573;SDS011;68988;49.000;21.242;2023-12-28T00:31:31;2.97;;;2.88;;
57573;SDS011;68988;49.000;21.242;2023-12-28T00:33:57;3.78;;;3.47;;
57573;SDS011;68988;49.000;21.242;2023-12-28T00:36:22;3.38;;;3.17;;
57573;SDS011;68988;49.000;21.242;2023-12-28T00:38:48;2.85;;;2.72;;
57573;SDS011;68988;49.000;21.242;2023-12-28T00:41:13;3.22;;;3.03;;
57573;SDS011;68988;49.000;21.242;2023-12-28T00:43:39;3.30;;;3.00;;
57573;SDS011;68988;49.000;21.242;2023-12-28T00:46:04;3.17;;;2.92;;
57573;SDS011;68988;49.000;21.242;2023-12-28T00:48:29;3.33;;;3.13;;
57573;SDS011;68988;49.000;21.242;2023-12-28T00:50:54;3.30;;;3.10;;
57573;SDS011;68988;49.000;21.242;2023-12-28T00:53:20;3.55;;;3.35;;
57573;SDS011;68988;49.000;21.242;2023-12-28T00:55:45;3.42;;;3.22;;
57573;SDS011;68988;49.000;21.242;2023-12-28T00:58:11;3.15;;;2.95;;
57573;SDS011;68988;49.000;21.242;2023-12-28T01:00:36;3.35;;;3.05;;
57573;SDS011;68988;49.000;21.242;2023-12-28T01:03:01;3.33;;;3.13;;
57573;SDS011;68988;49.000;21.242;2023-12-28T01:05:27;3.35;;;3.15;;
57573;SDS011;68988;49.000;21.242;2023-12-28T01:07:53;2.63;;;2.53;;
57573;SDS011;68988;49.000;21.242;2023-12-28T01:10:19;3.45;;;3.25;;
57573;SDS011;68988;49.000;21.242;2023-12-28T01:12:44;3.17;;;2.97;;
57573;SDS011;68988;49.000;21.242;2023-12-28T01:15:10;3.42;;;3.22;;
57573;SDS011;68988;49.000;21.242;2023-12-28T01:17:35;3.38;;;3.17;;
57573;SDS011;68988;49.000;21.242;2023-12-28T01:20:00;3.25;;;3.05;;
57573;SDS011;68988;49.000;21.242;2023-12-28T01:22:26;3.35;;;3.15;;
57573;SDS011;68988;49.000;21.242;2023-12-28T01:24:51;3.30;;;3.10;;
57573;SDS011;68988;49.000;21.242;2023-12-28T01:27:16;3.58;;;3.38;;
57573;SDS011;68988;49.000;21.242;2023-12-28T01:29:42;3.20;;;3.00;;
57573;SDS011;68988;49.000;21.242;2023-12-28T01:32:07;3.00;;;2.80;;
57573;SDS011;68988;49.000;21.242;2023-12-28T01:34:32;3.10;;;2.90;;
57573;SDS011;68988;49.000;21.242;2023-12-28T01:36:58;3.40;;;3.20;;
57573;SDS011;68988;49.000;21.242;2023-12-28T01:39:23;3.20;;;3.00;;
57573;SDS011;68988;49.000;21.242;2023-12-28T01:41:48;3.30;;;3.10;;
57573;SDS011;68988;49.000;21.242;2023-12-28T01:44:14;3.58;;;3.38;;
57573;SDS011;68988;49.000;21.242;2023-12-28T01:46:39;3.78;;;3.58;;
57573;SDS011;68988;49.000;21.242;2023-12-28T01:49:05;3.20;;;3.00;;
57573;SDS011;68988;49.000;21.242;2023-12-28T01:51:31;3.75;;;3.45;;
57573;SDS011;68988;49.000;21.242;2023-12-28T01:53:57;3.20;;;3.00;;
57573;SDS011;68988;49.000;21.242;2023-12-28T01:56:23;3.33;;;3.13;;
57573;SDS011;68988;49.000;21.242;2023-12-28T01:58:49;3.10;;;2.90;;
57573;SDS011;68988;49.000;21.242;2023-12-28T02:01:17;3.05;;;2.85;;
57573;SDS011;68988;49.000;21.242;2023-12-28T02:03:42;3.15;;;2.95;;
57573;SDS011;68988;49.000;21.242;2023-12-28T02:06:08;3.45;;;3.20;;
57573;SDS011;68988;49.000;21.242;2023-12-28T02:08:34;3.10;;;2.90;;
57573;SDS011;68988;49.000;21.242;2023-12-28T02:10:59;3.38;;;3.17;;
57573;SDS011;68988;49.000;21.242;2023-12-28T02:13:25;3.65;;;3.45;;
57573;SDS011;68988;49.000;21.242;2023-12-28T02:15:54;3.20;;;3.00;;
57573;SDS011;68988;49.000;21.242;2023-12-28T02:18:27;3.25;;;3.05;;
57573;SDS011;68988;49.000;21.242;2023-12-28T02:20:59;3.13;;;2.92;;
57573;SDS011;68988;49.000;21.242;2023-12-28T02:23:27;3.67;;;3.47;;
57573;SDS011;68988;49.000;21.242;2023-12-28T02:25:52;3.22;;;3.03;;
57573;SDS011;68988;49.000;21.242;2023-12-28T02:28:18;3.45;;;3.15;;
57573;SDS011;68988;49.000;21.242;2023-12-28T02:30:43;3.10;;;2.95;;
57573;SDS011;68988;49.000;21.242;2023-12-28T02:35:54;3.30;;;3.10;;
57573;SDS011;68988;49.000;21.242;2023-12-28T02:38:22;3.70;;;3.50;;
57573;SDS011;68988;49.000;21.242;2023-12-28T02:40:49;3.13;;;2.92;;
57573;SDS011;68988;49.000;21.242;2023-12-28T02:43:15;3.33;;;3.13;;
57573;SDS011;68988;49.000;21.242;2023-12-28T02:45:41;4.50;;;3.00;;
57573;SDS011;68988;49.000;21.242;2023-12-28T02:48:06;3.40;;;3.20;;
57573;SDS011;68988;49.000;21.242;2023-12-28T02:50:32;3.28;;;3.08;;
57573;SDS011;68988;49.000;21.242;2023-12-28T02:52:58;3.33;;;3.00;;
57573;SDS011;68988;49.000;21.242;2023-12-28T02:55:24;3.20;;;3.00;;
57573;SDS011;68988;49.000;21.242;2023-12-28T02:57:50;3.15;;;3.03;;
57573;SDS011;68988;49.000;21.242;2023-12-28T03:00:17;3.28;;;3.08;;
57573;SDS011;68988;49.000;21.242;2023-12-28T03:02:42;3.13;;;2.92;;
57573;SDS011;68988;49.000;21.242;2023-12-28T03:05:08;3.47;;;3.28;;
57573;SDS011;68988;49.000;21.242;2023-12-28T03:07:34;3.08;;;2.88;;
57573;SDS011;68988;49.000;21.242;2023-12-28T03:10:00;3.22;;;3.03;;
57573;SDS011;68988;49.000;21.242;2023-12-28T03:12:26;3.88;;;3.50;;
57573;SDS011;68988;49.000;21.242;2023-12-28T03:14:52;3.30;;;3.10;;
57573;SDS011;68988;49.000;21.242;2023-12-28T03:17:18;3.05;;;2.95;;
57573;SDS011;68988;49.000;21.242;2023-12-28T03:19:43;3.40;;;3.20;;
57573;SDS011;68988;49.000;21.242;2023-12-28T03:22:08;3.50;;;3.30;;
57573;SDS011;68988;49.000;21.242;2023-12-28T03:24:34;3.53;;;3.33;;
57573;SDS011;68988;49.000;21.242;2023-12-28T03:27:01;2.97;;;2.80;;
57573;SDS011;68988;49.000;21.242;2023-12-28T03:29:27;2.92;;;2.78;;
57573;SDS011;68988;49.000;21.242;2023-12-28T03:31:52;3.28;;;3.10;;
57573;SDS011;68988;49.000;21.242;2023-12-28T03:34:18;3.20;;;3.00;;
57573;SDS011;68988;49.000;21.242;2023-12-28T03:36:43;3.38;;;3.17;;
57573;SDS011;68988;49.000;21.242;2023-12-28T03:39:08;2.78;;;2.67;;
57573;SDS011;68988;49.000;21.242;2023-12-28T03:41:34;3.22;;;3.13;;
57573;SDS011;68988;49.000;21.242;2023-12-28T03:43:59;3.05;;;2.85;;
57573;SDS011;68988;49.000;21.242;2023-12-28T03:46:25;3.38;;;3.17;;
57573;SDS011;68988;49.000;21.242;2023-12-28T03:48:51;3.05;;;2.85;;
57573;SDS011;68988;49.000;21.242;2023-12-28T03:51:17;3.63;;;3.00;;
57573;SDS011;68988;49.000;21.242;2023-12-28T03:53:42;3.45;;;3.25;;
57573;SDS011;68988;49.000;21.242;2023-12-28T03:56:08;3.03;;;2.83;;
57573;SDS011;68988;49.000;21.242;2023-12-28T03:58:43;3.22;;;3.03;;
57573;SDS011;68988;49.000;21.242;2023-12-28T04:01:09;3.25;;;3.05;;
57573;SDS011;68988;49.000;21.242;2023-12-28T04:03:35;3.20;;;3.00;;
57573;SDS011;68988;49.000;21.242;2023-12-28T04:06:00;2.90;;;2.70;;
57573;SDS011;68988;49.000;21.242;2023-12-28T04:08:25;3.28;;;3.08;;
57573;SDS011;68988;49.000;21.242;2023-12-28T04:10:50;3.20;;;3.00;;
57573;SDS011;68988;49.000;21.242;2023-12-28T04:13:16;3.25;;;3.05;;
57573;SDS011;68988;49.000;21.242;2023-12-28T04:15:42;3.28;;;3.08;;
57573;SDS011;68988;49.000;21.242;2023-12-28T04:18:08;2.88;;;2.78;;
57573;SDS011;68988;49.000;21.242;2023-12-28T04:20:33;2.83;;;2.70;;
57573;SDS011;68988;49.000;21.242;2023-12-28T04:22:59;3.33;;;3.13;;
57573;SDS011;68988;49.000;21.242;2023-12-28T04:25:24;3.10;;;2.90;;
57573;SDS011;68988;49.000;21.242;2023-12-28T04:27:50;3.22;;;3.03;;
57573;SDS011;68988;49.000;21.242;2023-12-28T04:30:15;3.20;;;2.97;;
57573;SDS011;68988;49.000;21.242;2023-12-28T04:32:40;2.97;;;2.78;;
57573;SDS011;68988;49.000;21.242;2023-12-28T04:35:06;3.20;;;3.00;;
57573;SDS011;68988;49.000;21.242;2023-12-28T04:37:32;3.58;;;3.38;;
57573;SDS011;68988;49.000;21.242;2023-12-28T04:39:57;3.60;;;3.30;;
57573;SDS011;68988;49.000;21.242;2023-12-28T04:42:23;2.70;;;2.60;;
57573;SDS011;68988;49.000;21.242;2023-12-28T04:44:48;3.22;;;3.03;;
57573;SDS011;68988;49.000;21.242;2023-12-28T04:47:14;3.20;;;3.00;;
57573;SDS011;68988;49.000;21.242;2023-12-28T04:49:39;3.08;;;2.90;;
57573;SDS011;68988;49.000;21.242;2023-12-28T04:52:04;3.10;;;2.90;;
57573;SDS011;68988;49.000;21.242;2023-12-28T04:54:30;2.90;;;2.70;;
57573;SDS011;68988;49.000;21.242;2023-12-28T04:56:55;2.92;;;2.83;;
57573;SDS011;68988;49.000;21.242;2023-12-28T04:59:20;3.17;;;3.03;;
57573;SDS011;68988;49.000;21.242;2023-12-28T05:01:46;2.90;;;2.80;;
57573;SDS011;68988;49.000;21.242;2023-12-28T05:04:11;2.83;;;2.72;;
57573;SDS011;68988;49.000;21.242;2023-12-28T05:06:37;2.78;;;2.67;;
57573;SDS011;68988;49.000;21.242;2023-12-28T05:09:03;2.80;;;2.60;;
57573;SDS011;68988;49.000;21.242;2023-12-28T05:11:29;2.72;;;2.63;;
57573;SDS011;68988;49.000;21.242;2023-12-28T05:13:54;3.03;;;2.83;;
57573;SDS011;68988;49.000;21.242;2023-12-28T05:16:20;2.85;;;2.70;;
57573;SDS011;68988;49.000;21.242;2023-12-28T05:18:45;4.60;;;2.88;;
57573;SDS011;68988;49.000;21.242;2023-12-28T05:21:11;2.75;;;2.65;;
57573;SDS011;68988;49.000;21.242;2023-12-28T05:23:37;2.92;;;2.78;;
57573;SDS011;68988;49.000;21.242;2023-12-28T05:26:03;2.80;;;2.70;;
57573;SDS011;68988;49.000;21.242;2023-12-28T05:28:28;3.25;;;3.05;;
57573;SDS011;68988;49.000;21.242;2023-12-28T05:30:54;2.75;;;2.65;;
57573;SDS011;68988;49.000;21.242;2023-12-28T05:33:19;2.80;;;2.70;;
57573;SDS011;68988;49.000;21.242;2023-12-28T05:35:44;2.80;;;2.70;;
57573;SDS011;68988;49.000;21.242;2023-12-28T05:38:10;2.72;;;2.53;;
57573;SDS011;68988;49.000;21.242;2023-12-28T05:40:35;2.90;;;2.72;;
57573;SDS011;68988;49.000;21.242;2023-12-28T05:43:00;2.85;;;2.75;;
57573;SDS011;68988;49.000;21.242;2023-12-28T05:45:26;7.93;;;3.05;;
57573;SDS011;68988;49.000;21.242;2023-12-28T05:47:51;5.22;;;4.82;;
57573;SDS011;68988;49.000;21.242;2023-12-28T05:50:16;20.45;;;5.03;;
57573;SDS011;68988;49.000;21.242;2023-12-28T05:52:41;7.07;;;5.40;;
57573;SDS011;68988;49.000;21.242;2023-12-28T05:55:07;5.55;;;5.00;;
57573;SDS011;68988;49.000;21.242;2023-12-28T05:57:33;4.53;;;4.18;;
57573;SDS011;68988;49.000;21.242;2023-12-28T05:59:58;6.97;;;3.78;;
57573;SDS011;68988;49.000;21.242;2023-12-28T06:02:23;4.03;;;3.72;;
57573;SDS011;68988;49.000;21.242;2023-12-28T06:04:49;4.05;;;3.83;;
57573;SDS011;68988;49.000;21.242;2023-12-28T06:07:14;5.93;;;3.88;;
57573;SDS011;68988;49.000;21.242;2023-12-28T06:09:40;3.65;;;3.45;;
57573;SDS011;68988;49.000;21.242;2023-12-28T06:12:05;3.90;;;3.60;;
57573;SDS011;68988;49.000;21.242;2023-12-28T06:14:31;3.75;;;3.55;;
57573;SDS011;68988;49.000;21.242;2023-12-28T06:16:56;5.45;;;3.63;;
57573;SDS011;68988;49.000;21.242;2023-12-28T06:19:21;14.38;;;3.58;;
57573;SDS011;68988;49.000;21.242;2023-12-28T06:21:47;5.63;;;3.35;;
57573;SDS011;68988;49.000;21.242;2023-12-28T06:24:13;13.15;;;3.67;;
57573;SDS011;68988;49.000;21.242;2023-12-28T06:26:42;5.43;;;3.45;;
57573;SDS011;68988;49.000;21.242;2023-12-28T06:29:08;7.50;;;3.97;;
57573;SDS011;68988;49.000;21.242;2023-12-28T06:31:35;6.93;;;3.72;;
57573;SDS011;68988;49.000;21.242;2023-12-28T06:34:04;9.50;;;3.28;;
57573;SDS011;68988;49.000;21.242;2023-12-28T06:36:31;17.58;;;3.30;;
57573;SDS011;68988;49.000;21.242;2023-12-28T06:38:57;5.30;;;3.30;;
57573;SDS011;68988;49.000;21.242;2023-12-28T06:41:22;5.40;;;3.35;;
57573;SDS011;68988;49.000;21.242;2023-12-28T06:43:48;3.60;;;3.40;;
57573;SDS011;68988;49.000;21.242;2023-12-28T06:46:13;5.60;;;3.08;;
57573;SDS011;68988;49.000;21.242;2023-12-28T06:48:38;5.97;;;3.20;;
57573;SDS011;68988;49.000;21.242;2023-12-28T06:51:05;5.18;;;3.10;;
57573;SDS011;68988;49.000;21.242;2023-12-28T06:53:31;3.63;;;3.30;;
57573;SDS011;68988;49.000;21.242;2023-12-28T06:55:56;3.28;;;2.97;;
57573;SDS011;68988;49.000;21.242;2023-12-28T06:58:22;3.60;;;3.10;;
57573;SDS011;68988;49.000;21.242;2023-12-28T07:00:47;2.92;;;2.72;;
57573;SDS011;68988;49.000;21.242;2023-12-28T07:03:12;3.10;;;2.80;;
57573;SDS011;68988;49.000;21.242;2023-12-28T07:05:38;2.90;;;2.70;;
57573;SDS011;68988;49.000;21.242;2023-12-28T07:08:03;3.45;;;3.15;;
57573;SDS011;68988;49.000;21.242;2023-12-28T07:10:29;3.22;;;3.03;;
57573;SDS011;68988;49.000;21.242;2023-12-28T07:12:54;9.38;;;3.38;;
57573;SDS011;68988;49.000;21.242;2023-12-28T07:15:19;3.10;;;2.90;;
57573;SDS011;68988;49.000;21.242;2023-12-28T07:17:48;3.33;;;2.88;;
57573;SDS011;68988;49.000;21.242;2023-12-28T07:20:13;3.33;;;3.13;;
57573;SDS011;68988;49.000;21.242;2023-12-28T07:22:38;3.67;;;2.88;;
57573;SDS011;68988;49.000;21.242;2023-12-28T07:25:07;4.85;;;3.25;;
57573;SDS011;68988;49.000;21.242;2023-12-28T07:27:33;2.88;;;2.67;;
57573;SDS011;68988;49.000;21.242;2023-12-28T07:29:59;3.92;;;3.63;;
57573;SDS011;68988;49.000;21.242;2023-12-28T07:32:25;3.15;;;2.88;;
57573;SDS011;68988;49.000;21.242;2023-12-28T07:34:53;4.47;;;3.08;;
57573;SDS011;68988;49.000;21.242;2023-12-28T07:37:19;3.15;;;2.95;;
57573;SDS011;68988;49.000;21.242;2023-12-28T07:39:44;3.20;;;3.00;;
57573;SDS011;68988;49.000;21.242;2023-12-28T07:42:10;3.40;;;3.10;;
57573;SDS011;68988;49.000;21.242;2023-12-28T07:44:35;3.53;;;2.88;;
57573;SDS011;68988;49.000;21.242;2023-12-28T07:47:01;11.68;;;3.05;;
57573;SDS011;68988;49.000;21.242;2023-12-28T07:49:33;3.08;;;2.75;;
57573;SDS011;68988;49.000;21.242;2023-12-28T07:51:59;2.92;;;2.72;;
57573;SDS011;68988;49.000;21.242;2023-12-28T07:54:24;4.82;;;2.70;;
57573;SDS011;68988;49.000;21.242;2023-12-28T07:56:49;3.17;;;2.97;;
57573;SDS011;68988;49.000;21.242;2023-12-28T07:59:15;3.08;;;2.78;;
57573;SDS011;68988;49.000;21.242;2023-12-28T08:01:40;3.13;;;2.92;;
57573;SDS011;68988;49.000;21.242;2023-12-28T08:04:05;6.00;;;2.60;;
57573;SDS011;68988;49.000;21.242;2023-12-28T08:06:31;2.70;;;2.60;;
57573;SDS011;68988;49.000;21.242;2023-12-28T08:08:57;3.40;;;2.90;;
57573;SDS011;68988;49.000;21.242;2023-12-28T08:11:25;3.10;;;2.90;;
57573;SDS011;68988;49.000;21.242;2023-12-28T08:13:51;2.35;;;2.25;;
57573;SDS011;68988;49.000;21.242;2023-12-28T08:16:17;4.97;;;2.80;;
57573;SDS011;68988;49.000;21.242;2023-12-28T08:18:42;5.43;;;2.65;;
57573;SDS011;68988;49.000;21.242;2023-12-28T08:21:07;2.22;;;2.13;;
57573;SDS011;68988;49.000;21.242;2023-12-28T08:23:33;3.08;;;2.70;;
57573;SDS011;68988;49.000;21.242;2023-12-28T08:25:58;2.88;;;2.67;;
57573;SDS011;68988;49.000;21.242;2023-12-28T08:28:23;3.00;;;2.80;;
57573;SDS011;68988;49.000;21.242;2023-12-28T08:30:49;2.72;;;2.53;;
57573;SDS011;68988;49.000;21.242;2023-12-28T08:33:14;2.83;;;2.63;;
57573;SDS011;68988;49.000;21.242;2023-12-28T08:35:39;3.55;;;2.60;;
57573;SDS011;68988;49.000;21.242;2023-12-28T08:38:05;2.75;;;2.33;;
57573;SDS011;68988;49.000;21.242;2023-12-28T08:40:31;2.53;;;2.38;;
57573;SDS011;68988;49.000;21.242;2023-12-28T08:42:57;2.80;;;2.60;;
57573;SDS011;68988;49.000;21.242;2023-12-28T08:45:22;2.55;;;2.33;;
57573;SDS011;68988;49.000;21.242;2023-12-28T08:47:47;2.80;;;2.60;;
57573;SDS011;68988;49.000;21.242;2023-12-28T08:50:13;2.60;;;2.40;;
57573;SDS011;68988;49.000;21.242;2023-12-28T08:52:38;3.65;;;2.45;;
57573;SDS011;68988;49.000;21.242;2023-12-28T08:55:04;4.57;;;2.60;;
57573;SDS011;68988;49.000;21.242;2023-12-28T08:57:30;3.15;;;2.58;;
57573;SDS011;68988;49.000;21.242;2023-12-28T08:59:56;2.83;;;2.60;;
57573;SDS011;68988;49.000;21.242;2023-12-28T09:02:21;2.65;;;2.47;;
57573;SDS011;68988;49.000;21.242;2023-12-28T09:04:48;2.65;;;2.55;;
57573;SDS011;68988;49.000;21.242;2023-12-28T09:07:13;2.65;;;2.47;;
57573;SDS011;68988;49.000;21.242;2023-12-28T09:09:38;3.13;;;2.92;;
57573;SDS011;68988;49.000;21.242;2023-12-28T09:12:04;2.70;;;2.50;;
57573;SDS011;68988;49.000;21.242;2023-12-28T09:14:30;3.33;;;2.55;;
57573;SDS011;68988;49.000;21.242;2023-12-28T09:16:55;3.35;;;2.40;;
57573;SDS011;68988;49.000;21.242;2023-12-28T09:19:21;2.80;;;2.60;;
57573;SDS011;68988;49.000;21.242;2023-12-28T09:21:47;5.88;;;2.42;;
57573;SDS011;68988;49.000;21.242;2023-12-28T09:24:13;3.30;;;2.65;;
57573;SDS011;68988;49.000;21.242;2023-12-28T09:26:40;3.15;;;2.40;;
57573;SDS011;68988;49.000;21.242;2023-12-28T09:29:06;2.50;;;2.30;;
57573;SDS011;68988;49.000;21.242;2023-12-28T09:31:31;2.53;;;2.38;;
57573;SDS011;68988;49.000;21.242;2023-12-28T09:33:57;2.65;;;2.45;;
57573;SDS011;68988;49.000;21.242;2023-12-28T09:36:22;2.63;;;2.53;;
57573;SDS011;68988;49.000;21.242;2023-12-28T09:38:47;2.72;;;2.53;;
57573;SDS011;68988;49.000;21.242;2023-12-28T09:41:14;2.70;;;2.50;;
57573;SDS011;68988;49.000;21.242;2023-12-28T09:43:53;2.28;;;2.17;;
57573;SDS011;68988;49.000;21.242;2023-12-28T09:46:22;2.47;;;2.35;;
57573;SDS011;68988;49.000;21.242;2023-12-28T09:48:48;4.28;;;2.50;;
57573;SDS011;68988;49.000;21.242;2023-12-28T09:51:14;2.13;;;2.03;;
57573;SDS011;68988;49.000;21.242;2023-12-28T09:53:39;2.97;;;2.63;;
57573;SDS011;68988;49.000;21.242;2023-12-28T09:56:05;2.92;;;2.35;;
57573;SDS011;68988;49.000;21.242;2023-12-28T09:58:31;2.50;;;2.30;;
57573;SDS011;68988;49.000;21.242;2023-12-28T10:01:00;2.10;;;2.00;;
57573;SDS011;68988;49.000;21.242;2023-12-28T10:03:26;2.20;;;2.05;;
57573;SDS011;68988;49.000;21.242;2023-12-28T10:05:52;5.03;;;2.20;;
57573;SDS011;68988;49.000;21.242;2023-12-28T10:08:17;4.03;;;2.17;;
57573;SDS011;68988;49.000;21.242;2023-12-28T10:10:43;4.32;;;2.20;;
57573;SDS011;68988;49.000;21.242;2023-12-28T10:13:16;2.60;;;2.40;;
57573;SDS011;68988;49.000;21.242;2023-12-28T10:15:42;2.85;;;2.30;;
57573;SDS011;68988;49.000;21.242;2023-12-28T10:18:11;2.20;;;2.10;;
57573;SDS011;68988;49.000;21.242;2023-12-28T10:20:37;3.00;;;2.33;;
57573;SDS011;68988;49.000;21.242;2023-12-28T10:23:03;4.15;;;2.50;;
57573;SDS011;68988;49.000;21.242;2023-12-28T10:25:30;2.20;;;2.10;;
57573;SDS011;68988;49.000;21.242;2023-12-28T10:27:57;2.35;;;2.15;;
57573;SDS011;68988;49.000;21.242;2023-12-28T10:30:24;2.17;;;2.08;;
57573;SDS011;68988;49.000;21.242;2023-12-28T10:32:49;2.00;;;1.90;;
57573;SDS011;68988;49.000;21.242;2023-12-28T10:35:14;2.40;;;2.30;;
57573;SDS011;68988;49.000;21.242;2023-12-28T10:37:40;2.35;;;2.15;;
57573;SDS011;68988;49.000;21.242;2023-12-28T10:40:13;5.50;;;2.60;;
57573;SDS011;68988;49.000;21.242;2023-12-28T10:45:16;3.40;;;2.35;;
57573;SDS011;68988;49.000;21.242;2023-12-28T10:47:47;4.28;;;2.22;;
57573;SDS011;68988;49.000;21.242;2023-12-28T10:53:13;2.58;;;2.22;;
57573;SDS011;68988;49.000;21.242;2023-12-28T10:55:47;2.58;;;2.38;;
57573;SDS011;68988;49.000;21.242;2023-12-28T10:58:21;2.08;;;1.95;;
57573;SDS011;68988;49.000;21.242;2023-12-28T11:00:59;3.50;;;2.28;;
57573;SDS011;68988;49.000;21.242;2023-12-28T11:03:32;5.47;;;2.10;;
57573;SDS011;68988;49.000;21.242;2023-12-28T11:06:00;5.05;;;2.58;;
57573;SDS011;68988;49.000;21.242;2023-12-28T11:08:27;4.20;;;2.55;;
57573;SDS011;68988;49.000;21.242;2023-12-28T11:10:54;4.75;;;2.20;;
57573;SDS011;68988;49.000;21.242;2023-12-28T11:13:21;2.45;;;2.25;;
57573;SDS011;68988;49.000;21.242;2023-12-28T11:15:48;5.28;;;2.22;;
57573;SDS011;68988;49.000;21.242;2023-12-28T11:18:15;3.78;;;1.98;;
57573;SDS011;68988;49.000;21.242;2023-12-28T11:20:43;2.22;;;2.00;;
57573;SDS011;68988;49.000;21.242;2023-12-28T11:23:09;2.92;;;2.10;;
57573;SDS011;68988;49.000;21.242;2023-12-28T11:25:36;5.10;;;2.10;;
57573;SDS011;68988;49.000;21.242;2023-12-28T11:28:08;2.72;;;2.15;;
57573;SDS011;68988;49.000;21.242;2023-12-28T11:30:34;2.30;;;2.15;;
57573;SDS011;68988;49.000;21.242;2023-12-28T11:33:01;1.98;;;1.88;;
57573;SDS011;68988;49.000;21.242;2023-12-28T11:35:38;4.10;;;2.05;;
57573;SDS011;68988;49.000;21.242;2023-12-28T11:38:04;2.20;;;2.10;;
57573;SDS011;68988;49.000;21.242;2023-12-28T11:40:40;2.47;;;2.08;;
57573;SDS011;68988;49.000;21.242;2023-12-28T11:43:20;2.20;;;2.10;;
57573;SDS011;68988;49.000;21.242;2023-12-28T11:45:46;2.13;;;1.92;;
57573;SDS011;68988;49.000;21.242;2023-12-28T11:48:21;2.30;;;2.20;;
57573;SDS011;68988;49.000;21.242;2023-12-28T11:50:54;2.58;;;2.22;;
57573;SDS011;68988;49.000;21.242;2023-12-28T11:53:22;4.63;;;1.80;;
57573;SDS011;68988;49.000;21.242;2023-12-28T11:55:48;2.25;;;2.05;;
57573;SDS011;68988;49.000;21.242;2023-12-28T11:58:15;2.95;;;2.08;;
57573;SDS011;68988;49.000;21.242;2023-12-28T12:00:42;1.95;;;1.83;;
57573;SDS011;68988;49.000;21.242;2023-12-28T12:03:09;3.35;;;1.90;;
57573;SDS011;68988;49.000;21.242;2023-12-28T12:05:35;1.85;;;1.75;;
57573;SDS011;68988;49.000;21.242;2023-12-28T12:08:01;5.47;;;1.70;;
57573;SDS011;68988;49.000;21.242;2023-12-28T12:10:26;2.13;;;2.03;;
57573;SDS011;68988;49.000;21.242;2023-12-28T12:12:52;7.70;;;1.80;;
57573;SDS011;68988;49.000;21.242;2023-12-28T12:15:18;2.00;;;1.85;;
57573;SDS011;68988;49.000;21.242;2023-12-28T12:17:43;1.98;;;1.88;;
57573;SDS011;68988;49.000;21.242;2023-12-28T12:20:09;2.00;;;1.90;;
57573;SDS011;68988;49.000;21.242;2023-12-28T12:22:35;2.00;;;1.90;;
57573;SDS011;68988;49.000;21.242;2023-12-28T12:25:00;2.22;;;2.13;;
57573;SDS011;68988;49.000;21.242;2023-12-28T12:27:31;2.20;;;1.88;;
57573;SDS011;68988;49.000;21.242;2023-12-28T12:29:57;2.45;;;2.25;;
57573;SDS011;68988;49.000;21.242;2023-12-28T12:32:22;3.80;;;2.08;;
57573;SDS011;68988;49.000;21.242;2023-12-28T12:34:49;1.88;;;1.77;;
57573;SDS011;68988;49.000;21.242;2023-12-28T12:37:16;3.03;;;2.10;;
57573;SDS011;68988;49.000;21.242;2023-12-28T12:39:41;3.75;;;2.05;;
57573;SDS011;68988;49.000;21.242;2023-12-28T12:42:12;2.42;;;1.98;;
57573;SDS011;68988;49.000;21.242;2023-12-28T12:44:38;14.30;;;2.13;;
57573;SDS011;68988;49.000;21.242;2023-12-28T12:47:03;6.68;;;2.17;;
57573;SDS011;68988;49.000;21.242;2023-12-28T12:49:29;12.80;;;2.05;;
57573;SDS011;68988;49.000;21.242;2023-12-28T12:51:54;3.45;;;2.35;;
57573;SDS011;68988;49.000;21.242;2023-12-28T12:54:20;6.90;;;2.10;;
57573;SDS011;68988;49.000;21.242;2023-12-28T12:56:45;4.95;;;3.00;;
57573;SDS011;68988;49.000;21.242;2023-12-28T12:59:11;15.18;;;2.80;;
57573;SDS011;68988;49.000;21.242;2023-12-28T13:01:42;15.63;;;3.28;;
57573;SDS011;68988;49.000;21.242;2023-12-28T13:04:09;18.38;;;3.33;;
57573;SDS011;68988;49.000;21.242;2023-12-28T13:06:34;10.88;;;3.17;;
57573;SDS011;68988;49.000;21.242;2023-12-28T13:09:00;11.63;;;2.85;;
57573;SDS011;68988;49.000;21.242;2023-12-28T13:11:25;21.95;;;3.30;;
57573;SDS011;68988;49.000;21.242;2023-12-28T13:13:51;15.35;;;3.28;;
57573;SDS011;68988;49.000;21.242;2023-12-28T13:16:17;7.75;;;2.78;;
57573;SDS011;68988;49.000;21.242;2023-12-28T13:18:43;7.32;;;2.50;;
57573;SDS011;68988;49.000;21.242;2023-12-28T13:21:08;8.73;;;2.70;;
57573;SDS011;68988;49.000;21.242;2023-12-28T13:23:34;5.63;;;2.53;;
57573;SDS011;68988;49.000;21.242;2023-12-28T13:25:59;7.75;;;2.97;;
57573;SDS011;68988;49.000;21.242;2023-12-28T13:28:25;7.55;;;3.00;;
57573;SDS011;68988;49.000;21.242;2023-12-28T13:30:50;6.18;;;2.75;;
57573;SDS011;68988;49.000;21.242;2023-12-28T13:33:16;3.63;;;2.28;;
57573;SDS011;68988;49.000;21.242;2023-12-28T13:35:42;11.38;;;2.47;;
57573;SDS011;68988;49.000;21.242;2023-12-28T13:38:07;6.30;;;2.75;;
57573;SDS011;68988;49.000;21.242;2023-12-28T13:40:33;7.93;;;2.95;;
57573;SDS011;68988;49.000;21.242;2023-12-28T13:42:58;5.38;;;2.90;;
57573;SDS011;68988;49.000;21.242;2023-12-28T13:45:23;8.45;;;2.83;;
57573;SDS011;68988;49.000;21.242;2023-12-28T13:47:49;3.70;;;2.33;;
57573;SDS011;68988;49.000;21.242;2023-12-28T13:50:14;6.43;;;2.90;;
57573;SDS011;68988;49.000;21.242;2023-12-28T13:52:40;12.20;;;2.70;;
57573;SDS011;68988;49.000;21.242;2023-12-28T13:55:05;6.97;;;2.47;;
57573;SDS011;68988;49.000;21.242;2023-12-28T13:57:31;6.65;;;2.65;;
57573;SDS011;68988;49.000;21.242;2023-12-28T13:59:57;5.13;;;2.53;;
57573;SDS011;68988;49.000;21.242;2023-12-28T14:02:25;13.27;;;2.70;;
57573;SDS011;68988;49.000;21.242;2023-12-28T14:04:51;4.18;;;2.75;;
57573;SDS011;68988;49.000;21.242;2023-12-28T14:07:16;6.22;;;2.55;;
57573;SDS011;68988;49.000;21.242;2023-12-28T14:09:42;5.80;;;2.58;;
57573;SDS011;68988;49.000;21.242;2023-12-28T14:12:07;5.50;;;2.88;;
57573;SDS011;68988;49.000;21.242;2023-12-28T14:14:33;6.07;;;3.25;;
57573;SDS011;68988;49.000;21.242;2023-12-28T14:16:58;7.63;;;3.00;;
57573;SDS011;68988;49.000;21.242;2023-12-28T14:19:23;8.82;;;2.90;;
57573;SDS011;68988;49.000;21.242;2023-12-28T14:21:49;7.50;;;2.85;;
57573;SDS011;68988;49.000;21.242;2023-12-28T14:24:14;8.00;;;2.70;;
57573;SDS011;68988;49.000;21.242;2023-12-28T14:26:41;15.23;;;2.47;;
57573;SDS011;68988;49.000;21.242;2023-12-28T14:29:08;16.65;;;3.10;;
57573;SDS011;68988;49.000;21.242;2023-12-28T14:31:34;5.75;;;2.90;;
57573;SDS011;68988;49.000;21.242;2023-12-28T14:33:59;11.00;;;2.92;;